createdAt,value
2019-04-01T00:00:44.176Z,52.12
2019-04-01T00:03:16.677Z,51.49
2019-04-01T00:05:49.186Z,53.13
2019-04-01T00:08:21.521Z,52.32
2019-04-01T00:10:54.199Z,52.85
2019-04-01T00:13:26.576Z,53.18
2019-04-01T00:15:58.831Z,52.70
2019-04-01T00:18:31.291Z,53.12
2019-04-01T00:21:03.662Z,52.33
2019-04-01T00:23:36.246Z,52.28
2019-04-01T00:26:08.617Z,52.66
2019-04-01T00:28:41.002Z,54.04
2019-04-01T00:31:13.465Z,52.01
2019-04-01T00:33:45.871Z,53.80
2019-04-01T00:36:18.173Z,51.94
2019-04-01T00:38:50.596Z,52.36
2019-04-01T00:41:49.476Z,52.26
2019-04-01T00:44:21.942Z,53.96
2019-04-01T00:46:54.366Z,51.93
2019-04-01T00:49:26.966Z,52.29
2019-04-01T00:51:59.526Z,52.53
2019-04-01T00:54:31.813Z,52.67
2019-04-01T00:57:04.116Z,53.13
2019-04-01T00:59:36.312Z,54.05
2019-04-01T01:02:08.751Z,53.25
2019-04-01T01:04:42.237Z,54.46
2019-04-01T01:07:14.581Z,53.88
2019-04-01T01:09:48.001Z,54.31
2019-04-01T01:12:20.807Z,54.10
2019-04-01T01:14:54.491Z,55.10
2019-04-01T01:17:27.844Z,53.40
2019-04-01T01:20:00.517Z,54.69
2019-04-01T01:22:33.046Z,53.06
2019-04-01T01:25:05.608Z,55.05
2019-04-01T01:27:39.146Z,53.37
2019-04-01T01:30:12.386Z,55.75
2019-04-01T01:32:44.751Z,53.46
2019-04-01T01:35:17.199Z,55.11
2019-04-01T01:37:49.536Z,53.85
2019-04-01T01:40:21.921Z,55.84
2019-04-01T01:42:54.221Z,53.42
2019-04-01T01:45:26.711Z,55.20
2019-04-01T01:47:59.247Z,52.76
2019-04-01T01:50:31.983Z,54.60
2019-04-01T01:53:04.561Z,52.71
2019-04-01T01:55:36.656Z,54.38
2019-04-01T01:58:09.131Z,52.26
2019-04-01T02:00:42.112Z,54.58
2019-04-01T02:03:16.034Z,52.16
2019-04-01T02:05:48.301Z,54.34
2019-04-01T02:08:21.057Z,52.30
2019-04-01T02:10:53.406Z,54.22
2019-04-01T02:13:26.418Z,52.35
2019-04-01T02:15:58.736Z,54.28
2019-04-01T02:18:31.181Z,52.35
2019-04-01T02:21:03.582Z,54.65
2019-04-01T02:23:35.892Z,52.38
2019-04-01T02:26:08.276Z,53.94
2019-04-01T02:28:40.766Z,52.44
2019-04-01T02:31:13.322Z,54.49
2019-04-01T02:33:45.883Z,52.07
2019-04-01T02:36:18.278Z,52.65
2019-04-01T02:38:50.947Z,52.18
2019-04-01T02:41:23.732Z,54.16
2019-04-01T02:43:56.103Z,51.89
2019-04-01T02:46:28.583Z,52.97
2019-04-01T02:49:01.166Z,51.86
2019-04-01T02:51:33.948Z,53.30
2019-04-01T02:54:06.207Z,50.99
2019-04-01T02:56:38.543Z,54.05
2019-04-01T02:59:10.779Z,51.84
2019-04-01T03:01:43.338Z,54.06
2019-04-01T03:04:15.893Z,51.83
2019-04-01T03:06:48.298Z,54.12
2019-04-01T03:09:21.022Z,51.75
2019-04-01T03:11:53.282Z,54.30
2019-04-01T03:14:25.780Z,51.92
2019-04-01T03:16:58.272Z,54.60
2019-04-01T03:19:30.851Z,51.86
2019-04-01T03:22:03.191Z,54.49
2019-04-01T03:24:35.593Z,51.69
2019-04-01T03:27:09.151Z,54.38
2019-04-01T03:29:41.509Z,51.51
2019-04-01T03:32:14.157Z,53.62
2019-04-01T03:34:46.613Z,51.49
2019-04-01T03:37:19.247Z,54.00
2019-04-01T03:39:51.651Z,51.85
2019-04-01T03:42:24.357Z,54.67
2019-04-01T03:44:57.069Z,51.79
2019-04-01T03:47:29.711Z,54.18
2019-04-01T03:50:02.076Z,51.73
2019-04-01T03:52:34.477Z,54.38
2019-04-01T03:55:07.426Z,51.65
2019-04-01T03:57:39.596Z,54.52
2019-04-01T04:00:13.157Z,51.56
2019-04-01T04:02:45.648Z,54.55
2019-04-01T04:05:18.039Z,51.37
2019-04-01T04:07:50.887Z,54.02
2019-04-01T04:10:23.541Z,51.41
2019-04-01T04:12:55.982Z,54.06
2019-04-01T04:15:28.242Z,51.32
2019-04-01T04:18:00.773Z,53.83
2019-04-01T04:20:33.092Z,51.30
2019-04-01T04:23:06.559Z,54.32
2019-04-01T04:25:38.932Z,51.18
2019-04-01T04:28:11.475Z,54.05
2019-04-01T04:30:44.186Z,51.33
2019-04-01T04:33:17.730Z,54.24
2019-04-01T04:35:50.377Z,51.18
2019-04-01T04:38:22.903Z,54.11
2019-04-01T04:40:55.461Z,51.20
2019-04-01T04:43:27.906Z,53.89
2019-04-01T04:46:00.327Z,51.19
2019-04-01T04:48:34.087Z,54.30
2019-04-01T04:51:06.481Z,51.19
2019-04-01T04:53:38.674Z,54.38
2019-04-01T04:56:11.006Z,51.59
2019-04-01T04:58:43.368Z,54.36
2019-04-01T05:01:15.956Z,51.64
2019-04-01T05:03:48.537Z,54.34
2019-04-01T05:06:21.216Z,51.78
2019-04-01T05:08:53.466Z,54.68
2019-04-01T05:11:25.818Z,52.00
2019-04-01T05:13:58.986Z,54.28
2019-04-01T05:16:31.728Z,52.23
2019-04-01T05:19:04.461Z,54.15
2019-04-01T05:21:36.767Z,52.42
2019-04-01T05:24:09.717Z,54.24
2019-04-01T05:26:42.284Z,52.64
2019-04-01T05:29:15.572Z,53.08
2019-04-01T05:31:48.416Z,52.35
2019-04-01T05:34:21.451Z,52.84
2019-04-01T05:36:53.871Z,53.07
2019-04-01T05:39:26.686Z,52.74
2019-04-01T05:41:59.271Z,52.94
2019-04-01T05:44:31.708Z,52.99
2019-04-01T05:47:04.141Z,53.73
2019-04-01T05:49:36.381Z,53.14
2019-04-01T05:52:08.762Z,55.07
2019-04-01T05:54:41.171Z,54.12
2019-04-01T05:57:14.211Z,54.02
2019-04-01T05:59:46.651Z,55.60
2019-04-01T06:02:19.167Z,54.04
2019-04-01T06:04:51.596Z,53.51
2019-04-01T06:07:24.001Z,54.53
2019-04-01T06:09:56.617Z,54.34
2019-04-01T06:12:28.991Z,53.99
2019-04-01T06:15:01.472Z,54.46
2019-04-01T06:17:34.181Z,55.04
2019-04-01T06:20:07.610Z,55.21
2019-04-01T06:22:39.776Z,55.95
2019-04-01T06:25:12.297Z,55.76
2019-04-01T06:27:44.926Z,57.03
2019-04-01T06:30:17.446Z,56.71
2019-04-01T06:32:49.786Z,56.93
2019-04-01T06:35:22.355Z,57.41
2019-04-01T06:37:54.893Z,57.96
2019-04-01T06:40:27.210Z,58.18
2019-04-01T06:42:59.867Z,58.30
2019-04-01T06:45:33.818Z,58.69
2019-04-01T06:48:06.541Z,58.83
2019-04-01T06:50:38.901Z,59.01
2019-04-01T06:53:11.397Z,59.50
2019-04-01T06:55:43.713Z,59.25
2019-04-01T06:58:16.153Z,59.16
2019-04-01T07:00:48.540Z,59.20
2019-04-01T07:03:21.163Z,59.36
2019-04-01T07:05:54.469Z,59.37
2019-04-01T07:08:27.126Z,59.70
2019-04-01T07:10:59.286Z,60.23
2019-04-01T07:13:39.964Z,60.52
2019-04-01T07:16:15.865Z,60.50
2019-04-01T07:18:45.531Z,59.62
2019-04-01T07:21:17.608Z,59.78
2019-04-01T07:23:49.766Z,59.27
2019-04-01T07:26:21.872Z,58.84
2019-04-01T07:28:54.027Z,58.48
2019-04-01T07:31:26.468Z,58.63
2019-04-01T07:33:59.966Z,57.47
2019-04-01T07:36:32.246Z,59.72
2019-04-01T07:39:05.786Z,57.61
2019-04-01T07:41:38.006Z,58.09
2019-04-01T07:44:10.796Z,57.23
2019-04-01T07:46:42.976Z,57.75
2019-04-01T07:49:15.336Z,56.24
2019-04-01T07:51:47.697Z,56.97
2019-04-01T07:54:20.097Z,57.42
2019-04-01T07:56:52.267Z,57.42
2019-04-01T07:59:24.458Z,56.84
2019-04-01T08:01:56.617Z,57.31
2019-04-01T08:04:28.816Z,56.99
2019-04-01T08:07:01.131Z,56.78
2019-04-01T08:09:33.596Z,55.68
2019-04-01T08:12:06.577Z,55.04
2019-04-01T08:14:38.677Z,54.83
2019-04-01T08:17:10.816Z,55.73
2019-04-01T08:19:42.916Z,55.57
2019-04-01T08:22:15.139Z,53.94
2019-04-01T08:24:47.312Z,54.16
2019-04-01T08:27:19.883Z,54.72
2019-04-01T08:29:51.857Z,55.04
2019-04-01T08:32:23.901Z,52.14
2019-04-01T08:34:56.956Z,48.64
2019-04-01T08:37:29.286Z,49.30
2019-04-01T08:40:01.555Z,46.25
2019-04-01T08:42:34.696Z,49.35
2019-04-01T08:45:09.166Z,48.35
2019-04-01T08:47:41.315Z,44.58
2019-04-01T08:50:13.398Z,45.66
2019-04-01T08:52:45.516Z,49.24
2019-04-01T08:55:17.816Z,43.10
2019-04-01T08:57:50.186Z,38.11
2019-04-01T09:00:22.456Z,35.98
2019-04-01T09:02:54.536Z,40.29
2019-04-01T09:05:26.537Z,42.12
2019-04-01T09:07:58.956Z,39.84
2019-04-01T09:10:31.056Z,37.19
2019-04-01T09:13:03.356Z,37.65
2019-04-01T09:15:35.416Z,36.68
2019-04-01T09:18:07.556Z,39.35
2019-04-01T09:20:39.695Z,37.80
2019-04-01T09:23:11.936Z,38.74
2019-04-01T09:25:43.936Z,40.99
2019-04-01T09:28:16.202Z,39.20
2019-04-01T09:30:48.616Z,36.14
2019-04-01T09:33:21.039Z,33.58
2019-04-01T09:35:53.516Z,37.98
2019-04-01T09:38:25.575Z,39.16
2019-04-01T09:40:57.616Z,38.31
2019-04-01T09:43:30.127Z,36.36
2019-04-01T09:46:02.342Z,34.29
2019-04-01T09:48:34.492Z,33.84
2019-04-01T09:51:06.936Z,31.85
2019-04-01T09:53:39.176Z,35.80
2019-04-01T09:56:11.241Z,33.68
2019-04-01T09:58:43.356Z,33.93
2019-04-01T10:01:15.836Z,36.69
2019-04-01T10:03:47.976Z,34.93
2019-04-01T10:06:20.177Z,36.75
2019-04-01T10:08:52.741Z,36.12
2019-04-01T10:11:24.956Z,33.57
2019-04-01T10:13:57.176Z,33.26
2019-04-01T10:16:29.376Z,36.02
2019-04-01T10:19:01.897Z,35.28
2019-04-01T10:21:34.096Z,32.59
2019-04-01T10:24:06.376Z,33.51
2019-04-01T10:26:38.536Z,33.78
2019-04-01T10:29:11.036Z,33.28
2019-04-01T10:31:43.479Z,31.11
2019-04-01T10:34:15.756Z,33.24
2019-04-01T10:36:48.117Z,31.26
2019-04-01T10:39:20.255Z,29.48
2019-04-01T10:41:52.337Z,32.45
2019-04-01T10:44:24.796Z,33.28
2019-04-01T10:46:57.000Z,30.33
2019-04-01T10:49:32.023Z,33.60
2019-04-01T10:52:02.929Z,32.89
2019-04-01T10:54:35.232Z,30.31
2019-04-01T10:57:07.466Z,30.61
2019-04-01T10:59:39.940Z,31.06
2019-04-01T11:02:12.009Z,32.32
2019-04-01T11:04:44.335Z,31.36
2019-04-01T11:07:16.688Z,32.94
2019-04-01T11:09:48.836Z,31.47
2019-04-01T11:12:21.236Z,30.78
2019-04-01T11:14:53.399Z,32.41
2019-04-01T11:17:25.756Z,30.23
2019-04-01T11:19:57.977Z,30.81
2019-04-01T11:22:29.936Z,32.34
2019-04-01T11:25:02.141Z,31.08
2019-04-01T11:27:34.336Z,32.90
2019-04-01T11:30:08.516Z,31.89
2019-04-01T11:32:41.519Z,33.00
2019-04-01T11:35:13.648Z,30.90
2019-04-01T11:37:45.628Z,31.15
2019-04-01T11:40:17.726Z,30.75
2019-04-01T11:42:49.958Z,33.35
2019-04-01T11:45:22.668Z,31.71
2019-04-01T11:47:55.054Z,31.39
2019-04-01T11:50:27.367Z,31.09
2019-04-01T11:52:59.577Z,31.86
2019-04-01T11:55:32.190Z,32.79
2019-04-01T11:58:04.477Z,31.75
2019-04-01T12:00:36.776Z,32.01
2019-04-01T12:03:08.855Z,31.31
2019-04-01T12:05:41.156Z,31.19
2019-04-01T12:08:13.426Z,30.66
2019-04-01T12:10:45.776Z,31.41
2019-04-01T12:13:18.075Z,31.49
2019-04-01T12:15:50.315Z,30.73
2019-04-01T12:18:22.435Z,29.90
2019-04-01T12:20:54.435Z,29.88
2019-04-01T12:23:26.858Z,30.35
2019-04-01T12:26:13.890Z,29.64
2019-04-01T12:28:36.338Z,31.64
2019-04-01T12:31:06.898Z,31.28
2019-04-01T12:33:39.791Z,31.32
2019-04-01T12:36:12.136Z,31.34
2019-04-01T12:38:44.357Z,30.89
2019-04-01T12:41:17.026Z,30.99
2019-04-01T12:43:49.346Z,30.45
2019-04-01T12:46:21.695Z,30.45
2019-04-01T12:48:54.001Z,31.27
2019-04-01T12:51:26.195Z,31.76
2019-04-01T12:53:58.520Z,31.37
2019-04-01T12:56:30.636Z,31.20
2019-04-01T12:59:02.991Z,31.78
2019-04-01T13:01:35.495Z,30.44
2019-04-01T13:04:08.046Z,30.63
2019-04-01T13:06:40.555Z,31.89
2019-04-01T13:09:12.926Z,31.59
2019-04-01T13:11:45.621Z,30.96
2019-04-01T13:14:18.556Z,30.10
2019-04-01T13:16:50.776Z,30.00
2019-04-01T13:19:23.381Z,31.09
2019-04-01T13:21:55.773Z,30.22
2019-04-01T13:24:28.906Z,30.70
2019-04-01T13:27:01.051Z,31.00
2019-04-01T13:29:33.671Z,31.03
2019-04-01T13:32:06.910Z,31.20
2019-04-01T13:34:39.231Z,29.37
2019-04-01T13:37:12.473Z,30.57
2019-04-01T13:39:46.287Z,29.53
2019-04-01T13:42:18.633Z,29.50
2019-04-01T13:44:51.531Z,29.94
2019-04-01T13:47:24.111Z,30.00
2019-04-01T13:49:56.494Z,29.29
2019-04-01T13:52:28.650Z,29.86
2019-04-01T13:55:00.830Z,29.20
2019-04-01T13:57:33.090Z,29.64
2019-04-01T14:00:06.791Z,30.04
2019-04-01T14:02:39.091Z,30.01
2019-04-01T14:05:11.431Z,30.28
2019-04-01T14:07:43.771Z,30.29
2019-04-01T14:10:15.919Z,30.41
2019-04-01T14:12:49.350Z,30.21
2019-04-01T14:15:21.706Z,29.70
2019-04-01T14:17:54.099Z,29.89
2019-04-01T14:20:26.190Z,30.19
2019-04-01T14:22:58.611Z,29.45
2019-04-01T14:25:30.830Z,30.60
2019-04-01T14:28:03.190Z,30.16
2019-04-01T14:30:36.157Z,30.16
2019-04-01T14:33:08.770Z,29.53
2019-04-01T14:35:40.731Z,29.77
2019-04-01T14:38:13.031Z,30.23
2019-04-01T14:40:45.231Z,30.14
2019-04-01T14:43:17.630Z,30.48
2019-04-01T14:45:49.891Z,30.94
2019-04-01T14:48:22.344Z,30.78
2019-04-01T14:50:54.901Z,30.87
2019-04-01T14:53:27.305Z,31.15
2019-04-01T14:55:59.881Z,30.93
2019-04-01T14:58:32.450Z,31.13
2019-04-01T15:01:04.983Z,30.88
2019-04-01T15:03:38.526Z,31.16
2019-04-01T15:06:11.721Z,31.14
2019-04-01T15:08:44.103Z,31.32
2019-04-01T15:11:16.730Z,31.00
2019-04-01T15:13:49.451Z,31.28
2019-04-01T15:16:21.856Z,30.98
2019-04-01T15:18:54.106Z,31.28
2019-04-01T15:21:26.466Z,31.09
2019-04-01T15:23:58.876Z,31.20
2019-04-01T15:26:31.348Z,31.26
2019-04-01T15:29:03.717Z,31.40
2019-04-01T15:31:36.321Z,31.33
2019-04-01T15:34:09.459Z,31.63
2019-04-01T15:36:42.169Z,31.64
2019-04-01T15:39:15.471Z,31.48
2019-04-01T15:41:47.788Z,31.69
2019-04-01T15:44:20.459Z,31.82
2019-04-01T15:46:52.735Z,31.67
2019-04-01T15:49:24.980Z,31.77
2019-04-01T15:51:57.330Z,32.00
2019-04-01T15:54:29.736Z,32.00
2019-04-01T15:57:02.286Z,32.25
2019-04-01T15:59:34.820Z,32.43
2019-04-01T16:02:07.406Z,32.22
2019-04-01T16:04:40.166Z,31.90
2019-04-01T16:07:12.685Z,32.20
2019-04-01T16:09:45.170Z,32.36
2019-04-01T16:12:17.485Z,32.55
2019-04-01T16:14:50.316Z,32.77
2019-04-01T16:17:22.931Z,32.70
2019-04-01T16:19:55.651Z,32.69
2019-04-01T16:22:27.946Z,33.03
2019-04-01T16:25:00.766Z,32.89
2019-04-01T16:27:33.290Z,33.27
2019-04-01T16:30:07.850Z,33.17
2019-04-01T16:32:40.358Z,33.41
2019-04-01T16:35:12.861Z,33.37
2019-04-01T16:37:45.651Z,33.46
2019-04-01T16:40:18.408Z,33.55
2019-04-01T16:42:51.372Z,33.83
2019-04-01T16:45:23.893Z,33.86
2019-04-01T16:47:56.286Z,33.98
2019-04-01T16:50:28.782Z,33.91
2019-04-01T16:53:01.356Z,33.93
2019-04-01T16:55:33.790Z,33.99
2019-04-01T16:58:06.701Z,34.14
2019-04-01T17:00:39.776Z,34.19
2019-04-01T17:03:13.722Z,34.51
2019-04-01T17:05:47.950Z,34.14
2019-04-01T17:08:20.666Z,34.87
2019-04-01T17:10:53.250Z,34.85
2019-04-01T17:13:27.150Z,34.65
2019-04-01T17:16:01.693Z,34.61
2019-04-01T17:18:35.540Z,34.88
2019-04-01T17:21:08.122Z,34.91
2019-04-01T17:23:41.997Z,34.76
2019-04-01T17:26:15.071Z,34.81
2019-04-01T17:28:47.696Z,34.98
2019-04-01T17:31:20.205Z,34.76
2019-04-01T17:33:53.170Z,35.10
2019-04-01T17:36:26.002Z,35.06
2019-04-01T17:38:58.762Z,35.09
2019-04-01T17:41:31.381Z,35.30
2019-04-01T17:44:03.886Z,35.54
2019-04-01T17:46:37.364Z,35.72
2019-04-01T17:49:10.312Z,35.45
2019-04-01T17:51:44.180Z,35.52
2019-04-01T17:54:17.184Z,35.83
2019-04-01T17:56:51.242Z,35.90
2019-04-01T17:59:23.836Z,35.72
2019-04-01T18:01:57.195Z,36.19
2019-04-01T18:04:30.962Z,35.91
2019-04-01T18:07:03.806Z,36.09
2019-04-01T18:09:36.314Z,36.19
2019-04-01T18:12:08.839Z,36.17
2019-04-01T18:14:41.206Z,36.55
2019-04-01T18:17:13.806Z,36.30
2019-04-01T18:19:47.267Z,36.48
2019-04-01T18:22:19.922Z,36.42
2019-04-01T18:24:52.348Z,36.03
2019-04-01T18:27:25.068Z,36.61
2019-04-01T18:29:57.506Z,36.57
2019-04-01T18:32:31.131Z,37.12
2019-04-01T18:35:04.369Z,36.83
2019-04-01T18:37:37.048Z,36.97
2019-04-01T18:40:09.648Z,37.57
2019-04-01T18:42:42.266Z,37.76
2019-04-01T18:45:14.681Z,37.44
2019-04-01T18:47:47.451Z,37.72
2019-04-01T18:50:20.006Z,37.74
2019-04-01T18:52:52.777Z,37.90
2019-04-01T18:55:26.331Z,38.17
2019-04-01T18:57:59.206Z,38.22
2019-04-01T19:00:31.656Z,37.86
2019-04-01T19:03:04.260Z,38.29
2019-04-01T19:05:36.611Z,38.41
2019-04-01T19:08:09.222Z,38.39
2019-04-01T19:10:42.037Z,38.38
2019-04-01T19:13:14.911Z,39.24
2019-04-01T19:15:48.160Z,38.26
2019-04-01T19:18:21.435Z,38.58
2019-04-01T19:20:56.849Z,39.30
2019-04-01T19:23:28.090Z,40.06
2019-04-01T19:26:00.492Z,38.83
2019-04-01T19:28:33.103Z,40.07
2019-04-01T19:31:05.536Z,39.41
2019-04-01T19:33:38.317Z,40.42
2019-04-01T19:36:11.246Z,39.75
2019-04-01T19:38:43.921Z,39.32
2019-04-01T19:41:16.566Z,39.42
2019-04-01T19:43:51.164Z,38.88
2019-04-01T19:46:23.861Z,40.79
2019-04-01T19:48:56.352Z,39.90
2019-04-01T19:51:29.011Z,39.86
2019-04-01T19:54:01.421Z,40.51
2019-04-01T19:56:34.305Z,40.46
2019-04-01T19:59:06.892Z,39.55
2019-04-01T20:01:39.753Z,40.01
2019-04-01T20:04:12.256Z,39.17
2019-04-01T20:06:44.821Z,39.65
2019-04-01T20:09:18.122Z,39.68
2019-04-01T20:11:50.964Z,40.52
2019-04-01T20:14:23.491Z,40.45
2019-04-01T20:16:55.940Z,40.02
2019-04-01T20:19:29.781Z,40.58
2019-04-01T20:22:02.181Z,39.57
2019-04-01T20:24:34.861Z,40.28
2019-04-01T20:27:07.186Z,40.36
2019-04-01T20:29:40.815Z,40.45
2019-04-01T20:32:17.649Z,40.00
2019-04-01T20:34:56.757Z,40.86
2019-04-01T20:37:21.708Z,40.13
2019-04-01T20:39:55.258Z,40.37
2019-04-01T20:42:28.396Z,40.47
2019-04-01T20:45:01.176Z,40.69
2019-04-01T20:47:33.500Z,40.72
2019-04-01T20:50:11.186Z,41.18
2019-04-01T20:52:43.823Z,40.75
2019-04-01T20:55:16.586Z,41.03
2019-04-01T20:57:49.133Z,40.56
2019-04-01T21:00:21.843Z,40.85
2019-04-01T21:02:54.481Z,41.21
2019-04-01T21:05:27.117Z,40.72
2019-04-01T21:07:59.510Z,40.67
2019-04-01T21:10:31.996Z,41.00
2019-04-01T21:13:06.036Z,40.95
2019-04-01T21:15:38.354Z,40.98
2019-04-01T21:18:10.910Z,41.97
2019-04-01T21:20:43.545Z,40.76
2019-04-01T21:23:16.101Z,41.31
2019-04-01T21:25:48.831Z,41.73
2019-04-01T21:28:22.925Z,40.67
2019-04-01T21:30:55.786Z,41.53
2019-04-01T21:33:28.341Z,41.65
2019-04-01T21:36:01.016Z,41.25
2019-04-01T21:38:33.509Z,42.48
2019-04-01T21:41:05.925Z,40.31
2019-04-01T21:43:38.561Z,41.63
2019-04-01T21:46:10.986Z,41.95
2019-04-01T21:48:43.701Z,40.84
2019-04-01T21:51:16.632Z,42.32
2019-04-01T21:53:49.090Z,41.17
2019-04-01T21:56:22.189Z,43.25
2019-04-01T21:58:55.681Z,41.19
2019-04-01T22:01:28.282Z,41.52
2019-04-01T22:04:00.845Z,42.76
2019-04-01T22:06:33.327Z,41.72
2019-04-01T22:09:08.836Z,42.63
2019-04-01T22:11:41.271Z,41.79
2019-04-01T22:14:13.496Z,41.26
2019-04-01T22:16:48.018Z,42.41
2019-04-01T22:19:20.656Z,42.02
2019-04-01T22:21:53.380Z,40.72
2019-04-01T22:24:25.855Z,42.51
2019-04-01T22:26:58.415Z,41.09
2019-04-01T22:29:30.858Z,41.74
2019-04-01T22:32:03.355Z,40.69
2019-04-01T22:34:38.068Z,42.96
2019-04-01T22:37:10.866Z,41.53
2019-04-01T22:39:45.443Z,41.70
2019-04-01T22:42:17.626Z,41.56
2019-04-01T22:44:50.132Z,42.03
2019-04-01T22:47:24.347Z,41.91
2019-04-01T22:49:58.196Z,40.78
2019-04-01T22:52:30.552Z,42.53
2019-04-01T22:55:03.127Z,41.89
2019-04-01T22:57:35.716Z,42.40
2019-04-01T23:00:08.095Z,41.51
2019-04-01T23:02:42.382Z,43.03
2019-04-01T23:05:15.401Z,41.61
2019-04-01T23:07:47.756Z,41.63
2019-04-01T23:10:20.390Z,42.37
2019-04-01T23:12:52.589Z,41.40
2019-04-01T23:15:25.242Z,43.07
2019-04-01T23:17:57.616Z,41.89
2019-04-01T23:20:29.871Z,43.20
2019-04-01T23:23:01.971Z,41.68
2019-04-01T23:25:34.511Z,41.70
2019-04-01T23:28:06.731Z,41.61
2019-04-01T23:30:39.286Z,42.01
2019-04-01T23:33:11.513Z,42.66
2019-04-01T23:35:43.996Z,41.69
2019-04-01T23:38:17.481Z,42.16
2019-04-01T23:40:49.846Z,41.60
2019-04-01T23:43:22.465Z,41.95
2019-04-01T23:45:55.152Z,41.43
2019-04-01T23:48:27.341Z,42.72
2019-04-01T23:50:59.805Z,41.62
2019-04-01T23:53:32.560Z,41.86
2019-04-01T23:56:05.072Z,41.34
2019-04-01T23:58:37.446Z,40.80
